TAF MHLC
MHLC 072300Z 0800/0824 08010KT 5000 SHRA SCT026CB SCT080 TX30/0819Z TN21/0812Z BECMG 0802/0804 VRB03KT 9999 NSW SCT026 BECMG 0815/0817 02010KT BECMG 0820/0822 6000 RA SCT026TCU=
METAR MHLC
MHLC 080300Z 23003KT 9999 FEW026 BKN080 24/23 Q1014 A2995 NOSIG=
MHLC 080200Z 19004KT 9999 FEW028 SCT080 24/23 Q1014 A2995 TEMPO 5000 RA=
MHLC 080100Z 07003KT 9999 FEW030CB BKN080 24/23 Q1013 A2992 TEMPO 5000 RA=
MHLC 072300Z 08006KT 9999 SCT030CB BKN080 27/25 Q1012 A2989 NOSIG=
MHLC 072200Z 10004KT 9999 SCT030CB BKN080 27/25 Q1012 A2989 NOSIG=
WC MHLC
WS MHLC
WV MHLC